Station: Loxton

  Atmospheric Gas Attenuation - ITU Rec 676-11   --------------- db/100km ---------------
Date Time Temp RH % AH g/m3 Dew Point Wind Direction Speed kph Gust kph Barometer mB Rainfall Since 9am 24GHz 47GHz 76GHz 122GHz 134GHz 241GHz
21 18:40 19.9 26 4.47 0.1 11 13 1006 0 10.6 18.3 22.6 58.6 44.2 149.2
21 18:30 20.1 25 4.35 -0.3 13 20 1005.8 0 10.4 18.1 22.1 57.4 42.9 144.5
21 18:20 20.2 25 4.37 -0.5 15 20 1005.7 0 10.4 18.1 22.2 57.5 43.0 145.0
21 18:10 20.3 24 4.22 -0.6 15 17 1005.5 0 10.1 17.9 21.7 56.2 41.4 139.4
21 18:00 20.3 24 4.22 -1 19 33 1005.3 0 10.1 17.8 21.7 56.2 41.4 139.4
21 17:50 20.4 24 4.25 -0.8 19 24 1005.2 0 10.2 17.9 21.7 56.3 41.7 140.3
21 17:40 20.6 23 4.12 -1.2 19 26 1005.1 0 9.9 17.7 21.3 55.1 40.3 135.3
21 17:30 20.9 23 4.19 -1 22 37 1005 0 10.0 17.7 21.4 55.5 40.8 137.3
21 17:20 21.2 23 4.26 -0.7 17 20 1005 0 10.2 17.7 21.6 55.9 41.4 139.3
21 17:10 21.1 22 4.05 -1.4 28 37 1005 0 9.7 17.5 20.9 54.2 39.3 132.0
21 17:00 21.5 20 3.77 -2.2 20 32 1004.9 0 9.1 17.1 20.0 51.7 36.4 121.7
21 16:50 21.5 21 3.96 -1.7 20 28 1004.9 0 9.5 17.3 20.6 53.3 38.2 128.3
21 16:40 21.8 21 4.03 -1.5 19 26 1004.8 0 9.7 17.3 20.7 53.6 38.8 130.2
21 16:30 21.4 20 3.75 -2.4 28 44 1004.7 0 9.1 17.0 20.0 51.6 36.2 121.1
21 16:20 22.1 18 3.51 -3 35 48 1004.6 0 8.6 16.6 19.1 49.3 33.6 111.9
21 16:10 21.9 19 3.67 -2.6 32 44 1004.7 0 8.9 16.9 19.6 50.7 35.2 117.7
21 16:00 22.2 16 3.14 -4.7 32 48 1004.5 0 7.8 16.2 18.0 46.4 30.0 99.4
21 15:50 22.4 19 3.77 -2.3 26 30 1004.6 0 9.1 16.9 19.8 51.2 36.0 120.4
21 15:40 22.5 18 3.6 -3 24 35 1004.7 0 8.8 16.7 19.3 49.8 34.3 114.5
21 15:30 22.4 19 3.77 -2.3 28 46 1004.7 0 9.1 16.9 19.8 51.2 36.0 120.4
21 15:20 22.2 16 3.14 -4.7 37 50 1004.7 0 7.8 16.2 18.0 46.4 30.0 99.4
21 15:10 22.1 18 3.51 -3.5 37 44 1004.8 0 8.6 16.6 19.1 49.3 33.6 111.9
21 15:00 22.3 17 3.36 -3.4 28 43 1004.9 0 8.3 16.4 18.6 48.1 32.1 106.6
21 14:50 22.4 16 3.18 -4.2 28 39 1004.8 0 7.9 16.2 18.1 46.6 30.3 100.5
21 14:40 22.3 16 3.16 -4.9 35 43 1004.9 0 7.9 16.2 18.1 46.5 30.2 99.9
21 14:30 22.4 15 2.98 -5.2 30 57 1004.9 0 7.5 16.0 17.5 45.1 28.5 93.8
21 14:20 22.6 14 2.81 -5.7 41 50 1004.8 0 7.1 15.7 17.0 43.7 26.8 88.0
21 14:10 22.5 14 2.8 -6.6 39 46 1004.9 0 7.1 15.8 17.0 43.7 26.8 87.8
21 14:00 22.4 13 2.58 -7.4 37 54 1005 0 6.6 15.5 16.4 42.1 24.8 80.7
21 13:50 22.8 14 2.84 -6.2 30 39 1005 0 7.2 15.8 17.1 43.9 27.0 88.8
21 13:40 21.9 12 2.32 -8.4 41 54 1005.1 0 6.1 15.3 15.8 40.4 22.5 72.8
21 13:30 22.3 14 2.76 -6.6 35 52 1005.1 0 7.0 15.7 16.9 43.5 26.5 86.7
21 13:20 22.2 12 2.36 -8.1 39 46 1005.1 0 6.2 15.3 15.9 40.6 22.8 73.8
21 13:10 22.1 13 2.54 -7.2 35 43 1005.1 0 6.6 15.5 16.4 42.0 24.5 79.7
21 13:00 21.8 14 2.69 -6.9 35 54 1005.3 0 6.9 15.8 16.9 43.3 26.0 84.9
21 12:50 21.3 15 2.8 -6.1 39 52 1005.5 0 7.1 16.0 17.3 44.4 27.2 89.1
21 12:40 21.4 13 2.44 -7.5 41 50 1005.7 0 6.4 15.5 16.2 41.6 23.8 77.1
21 12:30 20.8 15 2.72 -6.4 32 54 1006 0 7.0 16.0 17.2 44.1 26.6 87.0
21 12:20 20.8 12 2.17 -9.5 39 48 1006 0 5.8 15.3 15.6 39.9 21.4 68.9
21 12:10 20.8 14 2.53 -7.6 28 35 1006.5 0 6.6 15.8 16.6 42.6 24.8 80.7
21 12:00 21.3 13 2.42 -7.9 26 39 1006.4 0 6.3 15.6 16.2 41.6 23.6 76.6
21 11:50 20.8 15 2.72 -7 24 32 1006.6 0 7.0 16.0 17.2 44.1 26.6 87.0
21 11:40 20.7 14 2.52 -7.9 22 37 1006.7 0 6.6 15.8 16.6 42.6 24.7 80.5
21 11:30 20.6 15 2.68 -7 22 33 1006.9 0 6.9 16.0 17.1 43.9 26.3 85.9
21 11:20 20.3 15 2.64 -6.7 28 39 1007.1 0 6.8 16.0 17.1 43.8 26.0 84.9
21 11:10 20 15 2.59 -7.6 28 35 1007.3 0 6.7 16.0 17.0 43.5 25.6 83.5
21 11:00 19.4 17 2.84 -6.4 24 39 1007.3 0 7.3 16.4 17.8 45.8 28.2 92.6
21 10:50 19.5 18 3.02 -5.6 30 35 1007.7 0 7.6 16.6 18.3 47.2 29.9 98.7
21 10:40 19.7 18 3.06 -5.1 20 28 1007.8 0 7.7 16.6 18.4 47.4 30.3 99.9
21 10:30 18.9 19 3.08 -5.1 24 37 1007.9 0 7.8 16.8 18.6 48.0 30.8 101.5
21 10:20 19.3 21 3.48 -3.7 19 30 1007.9 0 8.6 17.2 19.8 51.0 34.6 115.0
21 10:10 18.5 22 3.48 -3.2 26 32 1007.9 0 8.6 17.3 19.9 51.5 34.9 116.1
21 10:00 18.1 23 3.55 -3.2 24 39 1007.9 0 8.8 17.5 20.2 52.3 35.8 119.1
21 09:50 18.4 22 3.46 -3.5 26 32 1008.1 0 8.6 17.3 19.9 51.4 34.7 115.5
21 09:40 18.1 22 3.4 -3.7 19 26 1008.2 0 8.5 17.3 19.8 51.1 34.3 113.8
21 09:30 17.5 22 3.28 -4.6 26 39 1008.3 0 8.2 17.3 19.6 50.5 33.3 110.3
21 09:20 17.4 24 3.56 -3.4 22 30 1008.4 0 8.8 17.7 20.5 52.8 36.2 120.5
21 09:10 17.4 26 3.85 -2.1 26 32 1008.2 0 9.4 18.0 21.4 55.2 39.2 131.0
21 09:00 16.9 29 4.17 -1.1 22 35 1008.1 0 10.1 18.5 22.5 58.3 42.8 143.7
21 08:50 16.2 30 4.14 -1.3 26 35 1008.2 0 10.1 18.6 22.6 58.5 42.8 143.8
21 08:40 15.7 34 4.55 0 19 24 1008 0 10.9 19.3 24.1 62.5 47.5 160.2
21 08:30 14.4 37 4.57 -0.1 20 24 1007.9 0 11.0 19.6 24.5 63.6 48.5 163.6
21 08:20 14.6 36 4.5 -0.1 15 19 1007.8 0 10.9 19.4 24.2 62.8 47.6 160.4
21 08:10 15.3 32 4.18 -1.1 26 30 1007.7 0 10.2 18.8 22.9 59.5 43.7 146.8
21 08:00 15.3 34 4.44 -0.3 24 35 1007.6 0 10.7 19.2 23.8 61.8 46.5 156.7
21 07:50 15.1 37 4.77 0.7 13 17 1007.8 0 11.4 19.7 25.0 64.9 50.3 169.9
21 07:40 14.8 39 4.94 1.2 20 24 1007.7 0 11.8 20.0 25.6 66.7 52.4 177.2
21 07:30 13.9 43 5.16 1.7 15 20 1007.7 0 12.3 20.5 26.7 69.4 55.5 188.0
21 07:20 13.1 49 5.59 2.7 13 17 1007.9 0 13.2 21.3 28.5 74.2 61.1 207.6
21 07:10 12.5 62 6.82 5.4 6 6 1007.8 0 15.8 23.2 33.2 86.9 76.5 261.8
21 07:00 12.1 60 6.44 4.7 4 7 1007.7 0 15.1 22.8 31.9 83.5 72.2 246.5
21 06:50 11.5 64 6.61 5 0 0 1007.7 0 15.4 23.2 32.8 85.9 74.9 255.8
21 06:40 11 67 6.71 5.1 6 6 1007.7 0 15.7 23.5 33.4 87.4 76.6 261.9
21 06:30 10.3 71 6.8 5.3 6 9 1007.6 0 15.9 23.8 34.0 89.1 78.5 268.2
21 06:20 9.7 75 6.92 5.5 6 7 1007.6 0 16.2 24.1 34.8 91.1 80.6 275.8
21 06:10 9.8 75 6.96 5.7 0 0 1007.5 0 16.3 24.2 34.9 91.4 81.0 277.2
21 06:00 10.6 70 6.83 5.4 4 7 1007.3 0 15.9 23.7 34.0 89.1 78.5 268.5
21 05:50 11 64 6.41 4.6 7 9 1007.4 0 15.0 23.0 32.2 84.3 72.8 248.5
21 05:40 11.5 61 6.3 4.2 9 13 1007.3 0 14.8 22.7 31.6 82.7 71.0 242.1
21 05:30 11.7 60 6.28 4.2 9 13 1007.4 0 14.7 22.6 31.5 82.3 70.5 240.7
21 05:20 11.3 62 6.33 4.4 9 11 1007.6 0 14.9 22.8 31.8 83.2 71.5 244.1
21 05:10 10 79 7.43 6.6 6 9 1007.5 0 17.3 24.9 36.7 96.1 87.0 298.2
21 04:50 11.5 74 7.64 7.1 0 0 1007.5 0 17.6 24.8 36.8 96.6 88.1 302.1
21 04:40 12.3 67 7.28 6.4 0 0 1007.4 0 16.8 24.0 35.0 91.8 82.5 282.8
21 04:30 12.5 62 6.82 5.4 6 9 1007.2 0 15.8 23.2 33.2 86.9 76.5 261.7
21 04:20 12.8 58 6.5 4.8 7 9 1007.4 0 15.2 22.7 31.9 83.3 72.3 246.9
21 04:10 13.1 56 6.39 4.6 7 9 1007.4 0 14.9 22.4 31.3 81.9 70.6 241.2
21 04:00 13.2 55 6.32 4.5 7 11 1007.3 0 14.8 22.3 31.0 81.1 69.7 237.9
21 03:50 13.5 55 6.43 4.6 7 7 1007.2 0 15.0 22.4 31.3 81.9 70.8 241.7
21 03:40 13.9 52 6.23 4.4 9 11 1007.3 0 14.5 22.0 30.4 79.6 68.0 232.1
21 03:30 14.1 52 6.31 4.6 9 13 1007.1 0 14.7 22.1 30.7 80.1 68.8 234.8
21 03:20 14.4 52 6.43 4.8 11 13 1007.3 0 14.9 22.2 31.0 81.0 70.0 239.0
21 03:10 14.6 52 6.51 4.8 11 13 1007.3 0 15.1 22.2 31.2 81.6 70.8 241.8
21 03:00 14.8 48 6.08 4 11 19 1006.9 0 14.2 21.5 29.6 77.2 65.4 223.2
21 02:50 15.1 45 5.81 3.2 13 15 1006.9 0 13.6 21.1 28.5 74.4 62.1 211.3
21 02:40 15.4 42 5.52 2.8 19 24 1006.8 0 13.0 20.6 27.4 71.4 58.5 198.8
21 02:30 15.6 43 5.72 3.1 19 24 1006.8 0 13.4 20.8 28.0 73.1 60.6 206.4
21 02:20 15.8 45 6.06 4 19 22 1006.9 0 14.1 21.3 29.1 76.1 64.4 219.6
21 02:10 15.9 49 6.64 5.2 19 22 1007 0 15.3 22.1 31.2 81.5 71.1 243.3
21 02:00 16 54 7.36 6.9 15 24 1007.1 0 16.9 23.1 33.7 88.4 79.7 273.3

Last Refresh: 21-Sep-2020 18:54:12

Most of the information presented on this site is sourced from the Bureau of Meteorology.  Copyright in all material sourced from the Bureau of Meteorology resides with the Commonwealth of Australia.